Flight Track Log - Related Links

Times and Time Zones

All times are in EDT time to prevent confusion due to time zone crossing. See the CLX789 flight status page for this flight to view local times or setup timezone preferences in your user account.

Time Position Orientation Groundspeed Altitude Reporting Facility
EDT Latitude Longitude Course Direction KTS MPH feet Rate Location/Type
Thu 03:46:07 PM 47.9358 -122.0877 267° West  Level FlightAware Approximate
Thu 03:48:12 PM 47.9281 -122.2881 360° North 147 169 1,300  Level Seattle Center
Thu 03:48:50 PM 47.9531 -122.2881 North 141 162 2,300 1,258 Climbing Seattle Center
Thu 03:49:14 PM 47.9619 -122.2861 North 143 165 2,600 776 Climbing Seattle Center
Thu 03:50:15 PM 48.0106 -122.2778 30° Northeast 192 221 3,400 2,018 Climbing Seattle Center
Thu 03:51:04 PM 48.0728 -122.2250 27° Northeast 256 295 6,300 3,639 Climbing Seattle Center
Thu 03:51:16 PM 48.0856 -122.2153 28° Northeast 259 298 7,100 3,246 Climbing Seattle Center
Thu 03:52:05 PM 48.1378 -122.1739 31° Northeast 271 312 9,600 3,049 Climbing Seattle Center
Thu 03:52:17 PM 48.1519 -122.1611 29° Northeast 271 312 10,200 2,027 Climbing Seattle Center
Thu 03:53:19 PM 48.2275 -122.0978 49° Northeast 323 372 12,100 1,707 Climbing Seattle Center
Thu 03:54:20 PM 48.2953 -121.9786 71° East 411 473 13,700 2,410 Climbing Seattle Center
Thu 03:55:21 PM 48.3350 -121.8053 69° East 446 513 17,000 2,634 Climbing Seattle Center
Thu 03:56:23 PM 48.3817 -121.6194 71° East 468 539 19,100 2,293 Climbing Seattle Center
Thu 03:57:24 PM 48.4292 -121.4153 70° East 514 592 21,700 2,607 Climbing Seattle Center
Thu 03:58:25 PM 48.4914 -121.1567 70° East 547 629 24,400 2,390 Climbing Seattle Center
Thu 03:59:27 PM 48.5456 -120.9286 85° East 573 659 26,600 2,260 Climbing Seattle Center
Thu 03:59:42 PM 48.5500 -120.8500 72° East 590 679 27,300 2,720 Climbing Vancouver Center
Thu 04:00:42 PM 48.6000 -120.6167 63° Northeast 600 690 30,000 2,748 Climbing Vancouver Center
Thu 04:01:29 PM 48.6544 -120.4564 95° East 599 689 32,200 2,900 Climbing Seattle Center
Thu 04:01:42 PM 48.6500 -120.3833 61° Northeast 590 679 32,900 1,839 Climbing Vancouver Center
Thu 04:02:31 PM 48.7058 -120.2272 71° East 588 677 34,100 1,691 Climbing Seattle Center
Thu 04:03:32 PM 48.7600 -119.9917 72° East 592 681 36,000 2,049 Climbing Seattle Center
Thu 04:04:34 PM 48.8103 -119.7581 84° East 592 681 38,300 2,486 Climbing Seattle Center
Thu 04:04:42 PM 48.8167 -119.6667 67° East 590 679 38,900 689 Climbing Vancouver Center
Thu 04:05:35 PM 48.8658 -119.4883 73° East 573 659 39,000 50 Climbing Seattle Center
Thu 04:06:42 PM 48.9167 -119.2333 74° East 580 667 39,000  Level Vancouver Center
Thu 04:07:42 PM 48.9667 -118.9667 69° East 580 667 39,000  Level Vancouver Center
Thu 04:08:42 PM 49.0167 -118.7667 74° East 580 667 39,000  Level Vancouver Center
Thu 04:09:42 PM 49.0667 -118.5000 77° East 580 667 39,000  Level Vancouver Center
Thu 04:10:42 PM 49.1000 -118.2833 73° East 580 667 39,000  Level Vancouver Center
Thu 04:11:42 PM 49.1500 -118.0333 72° East 580 667 39,000  Level Vancouver Center
Thu 04:12:42 PM 49.2000 -117.8000 73° East 580 667 39,000  Level Vancouver Center
Thu 04:13:42 PM 49.2500 -117.5500 72° East 580 667 39,000  Level Vancouver Center
Thu 04:14:42 PM 49.3000 -117.3167 70° East 580 667 39,000  Level Vancouver Center
Thu 04:15:42 PM 49.3500 -117.1000 73° East 580 667 39,000  Level Vancouver Center
Thu 04:16:42 PM 49.4000 -116.8500 77° East 580 667 39,000  Level Vancouver Center
Thu 04:17:42 PM 49.4333 -116.6333 74° East 580 667 39,000  Level Vancouver Center
Thu 04:18:42 PM 49.4833 -116.3667 77° East 580 667 39,000  Level Vancouver Center
Thu 04:19:42 PM 49.5167 -116.1500 66° East 580 667 39,000  Level Vancouver Center
Thu 04:20:42 PM 49.5833 -115.9167 57° Northeast 560 644 39,000  Level Vancouver Center
Thu 04:21:42 PM 49.6667 -115.7167 57° Northeast 550 633 39,000  Level Vancouver Center
Thu 04:22:42 PM 49.7500 -115.5167 57° Northeast 550 633 39,000  Level Vancouver Center
Thu 04:23:42 PM 49.8333 -115.3167 59° Northeast 550 633 39,000  Level Vancouver Center
Thu 04:24:42 PM 49.9167 -115.1000 63° Northeast 550 633 39,000  Level Vancouver Center
Thu 04:25:42 PM 49.9833 -114.9000 60° Northeast 550 633 39,000  Level Vancouver Center
Thu 04:26:42 PM 50.0500 -114.7167 61° Northeast 550 633 39,000  Level Vancouver Center
Thu 04:27:42 PM 50.1333 -114.4833 62° Northeast 550 633 39,000  Level Vancouver Center
Thu 04:28:42 PM 50.2000 -114.2833 59° Northeast 550 633 39,000  Level Vancouver Center
Thu 04:29:42 PM 50.2833 -114.0667 57° Northeast 550 633 39,000  Level Vancouver Center
Thu 04:30:42 PM 50.3667 -113.8667 66° East 550 633 39,000  Level Vancouver Center
Thu 04:31:42 PM 50.4333 -113.6333 57° Northeast 550 633 39,000  Level Vancouver Center
Thu 04:32:42 PM 50.5167 -113.4333 62° Northeast 550 633 39,000  Level Vancouver Center
Thu 04:33:42 PM 50.5833 -113.2333 62° Northeast 550 633 39,000  Level Vancouver Center
Thu 04:34:42 PM 50.6500 -113.0333 360° North 550 633 39,000  Level Vancouver Center
Thu 04:35:07 PM 50.6833 -113.0333 64° Northeast 560 644 39,000  Level Winnipeg Center
Thu 04:36:07 PM 50.7500 -112.8167 59° Northeast 550 633 39,000  Level Winnipeg Center
Thu 04:37:07 PM 50.8333 -112.6000 68° East 540 621 39,000  Level Winnipeg Center
Thu 04:38:07 PM 50.8833 -112.4000 59° Northeast 540 621 39,000  Level Winnipeg Center
Thu 04:39:08 PM 50.9667 -112.1833 64° Northeast 540 621 39,000  Level Winnipeg Center
Thu 04:40:07 PM 51.0333 -111.9667 54° Northeast 540 621 39,000  Level Winnipeg Center
Thu 04:41:07 PM 51.1167 -111.7833 58° Northeast 540 621 39,000  Level Winnipeg Center
Thu 04:42:07 PM 51.2000 -111.5667 46° Northeast 540 621 39,000  Level Winnipeg Center
Thu 04:43:07 PM 51.3000 -111.4000 60° Northeast 530 610 39,000  Level Winnipeg Center
Thu 04:44:08 PM 51.3667 -111.2167 53° Northeast 540 621 39,000  Level Winnipeg Center
Thu 04:45:07 PM 51.4667 -111.0000 51° Northeast 530 610 39,000  Level Winnipeg Center
Thu 04:46:07 PM 51.5500 -110.8333 53° Northeast 530 610 39,000  Level Winnipeg Center
Thu 04:47:07 PM 51.6500 -110.6167 51° Northeast 530 610 39,000  Level Winnipeg Center
Thu 04:48:07 PM 51.7333 -110.4500 58° Northeast 530 610 39,000  Level Winnipeg Center
Thu 04:49:07 PM 51.8167 -110.2333 51° Northeast 530 610 39,000  Level Winnipeg Center
Thu 04:50:07 PM 51.9000 -110.0667 56° Northeast 520 598 39,000  Level Winnipeg Center
Thu 04:51:07 PM 51.9833 -109.8667 53° Northeast 530 610 39,000  Level Winnipeg Center
Thu 04:52:07 PM 52.0667 -109.6833 56° Northeast 520 598 39,000  Level Winnipeg Center
Thu 04:53:07 PM 52.1500 -109.4833 56° Northeast 520 598 39,000  Level Winnipeg Center
Thu 04:54:07 PM 52.2333 -109.2833 51° Northeast 520 598 39,000  Level Winnipeg Center
Thu 04:55:07 PM 52.3167 -109.1167 55° Northeast 520 598 39,000  Level Winnipeg Center
Thu 04:56:07 PM 52.4167 -108.8833 57° Northeast 520 598 39,000  Level Winnipeg Center
Thu 04:57:07 PM 52.4833 -108.7167 70° East 520 598 39,000  Level Winnipeg Center
Thu 04:57:41 PM 52.5167 -108.5667 53° Northeast 510 587 39,000  Level Edmonton Center
Thu 04:58:41 PM 52.6000 -108.3833 39° Northeast 510 587 39,000  Level Edmonton Center
Thu 04:59:08 PM 52.6500 -108.3167 55° Northeast 520 598 39,000  Level Winnipeg Center
Thu 05:00:07 PM 52.7333 -108.1167 57° Northeast 520 598 39,000  Level Winnipeg Center
Thu 05:01:08 PM 52.8167 -107.9000 50° Northeast 520 598 39,000  Level Winnipeg Center
Thu 05:02:08 PM 52.9000 -107.7333 55° Northeast 520 598 39,000  Level Winnipeg Center
Thu 05:03:07 PM 52.9833 -107.5333 55° Northeast 520 598 39,000  Level Winnipeg Center
Thu 05:04:08 PM 53.0667 -107.3333 63° Northeast 520 598 39,000  Level Winnipeg Center
Thu 05:05:08 PM 53.1333 -107.1167 55° Northeast 520 598 39,000  Level Winnipeg Center
Thu 05:06:07 PM 53.2167 -106.9167 57° Northeast 520 598 39,000  Level Winnipeg Center
Thu 05:07:07 PM 53.3000 -106.7000 59° Northeast 520 598 39,000  Level Winnipeg Center
Thu 05:08:08 PM 53.3667 -106.5167 55° Northeast 520 598 39,000  Level Winnipeg Center
Thu 05:09:08 PM 53.4500 -106.3167 57° Northeast 520 598 39,000  Level Winnipeg Center
Thu 05:10:08 PM 53.5333 -106.1000 55° Northeast 520 598 39,000  Level Winnipeg Center
Thu 05:11:08 PM 53.6167 -105.9000 62° Northeast 520 598 39,000  Level Winnipeg Center
Thu 05:12:07 PM 53.6833 -105.6833 57° Northeast 520 598 39,000  Level Winnipeg Center
Thu 05:13:07 PM 53.7667 -105.4667 55° Northeast 520 598 39,000  Level Winnipeg Center
Thu 05:14:08 PM 53.8500 -105.2667 58° Northeast 520 598 39,000  Level Winnipeg Center
Thu 05:15:07 PM 53.9167 -105.0833 57° Northeast 520 598 39,000  Level Winnipeg Center
Thu 05:16:08 PM 54.0000 -104.8667 58° Northeast 520 598 39,000  Level Winnipeg Center
Thu 05:17:08 PM 54.0667 -104.6833 60° Northeast 520 598 39,000  Level Winnipeg Center
Thu 05:18:08 PM 54.1500 -104.4333 58° Northeast 520 598 39,000  Level Winnipeg Center
Thu 05:19:08 PM 54.2167 -104.2500 57° Northeast 520 598 39,000  Level Winnipeg Center
Thu 05:20:08 PM 54.3000 -104.0333 62° Northeast 520 598 39,000  Level Winnipeg Center
Thu 05:21:08 PM 54.3667 -103.8167 60° Northeast 520 598 39,000  Level Winnipeg Center
Thu 05:22:07 PM 54.4333 -103.6167 60° Northeast 510 587 39,000  Level Winnipeg Center
Thu 05:23:07 PM 54.5167 -103.3667 52° Northeast 510 587 39,000  Level Winnipeg Center
Thu 05:24:07 PM 54.6000 -103.1833 70° East 510 587 39,000  Level Winnipeg Center
Thu 05:25:07 PM 54.6500 -102.9500 52° Northeast 510 587 39,000  Level Winnipeg Center
Thu 05:26:07 PM 54.7333 -102.7667 69° East 510 587 39,000  Level Winnipeg Center
Thu 05:26:41 PM 54.7667 -102.6167 62° Northeast 510 587 39,000  Level Edmonton Center
Thu 05:27:41 PM 54.8333 -102.4000 55° Northeast 510 587 39,000  Level Edmonton Center
Thu 05:28:07 PM 54.8667 -102.3167 56° Northeast 510 587 39,000  Level Winnipeg Center
Thu 05:29:07 PM 54.9500 -102.1000 60° Northeast 510 587 39,000  Level Winnipeg Center
Thu 05:30:07 PM 55.0167 -101.9000 63° Northeast 510 587 39,000  Level Winnipeg Center
Thu 05:31:07 PM 55.0833 -101.6667 62° Northeast 520 598 39,000  Level Winnipeg Center
Thu 05:32:07 PM 55.1500 -101.4500 58° Northeast 520 598 39,000  Level Winnipeg Center
Thu 05:33:07 PM 55.2333 -101.2167 69° East 520 598 39,000  Level Winnipeg Center
Thu 05:34:07 PM 55.2833 -100.9833 54° Northeast 520 598 39,000  Level Winnipeg Center
Thu 05:35:07 PM 55.3667 -100.7833 65° Northeast 520 598 39,000  Level Winnipeg Center
Thu 05:36:07 PM 55.4333 -100.5333 66° East 520 598 39,000  Level Winnipeg Center
Thu 05:37:07 PM 55.4833 -100.3333 58° Northeast 520 598 39,000  Level Winnipeg Center
Thu 05:38:07 PM 55.5667 -100.1000 59° Northeast 510 587 39,000  Level Winnipeg Center
Thu 05:39:07 PM 55.6333 -99.9000 80° East 510 587 39,000  Level Winnipeg Center
Thu 05:39:41 PM 55.6500 -99.7333 61° Northeast 500 575 39,000  Level Edmonton Center
Thu 05:40:41 PM 55.7167 -99.5167 43° Northeast 500 575 39,000  Level Edmonton Center
Thu 05:41:07 PM 55.7667 -99.4333 66° East 510 587 39,000  Level Winnipeg Center
Thu 05:42:07 PM 55.8167 -99.2333 64° Northeast 510 587 39,000  Level Winnipeg Center
Thu 05:43:07 PM 55.8833 -98.9833 69° East 510 587 39,000  Level Winnipeg Center
Thu 05:44:41 PM 55.9667 -98.6000 35° Northeast 500 575 39,000  Level Edmonton Center
Thu 05:45:07 PM 56.0333 -98.5167 66° East 510 587 39,000  Level Winnipeg Center
Thu 05:46:07 PM 56.0833 -98.3167 64° Northeast 510 587 39,000  Level Winnipeg Center
Thu 05:47:07 PM 56.1500 -98.0667 69° East 510 587 39,000  Level Winnipeg Center
Thu 05:48:07 PM 56.2000 -97.8333 61° Northeast 510 587 39,000  Level Winnipeg Center
Thu 05:49:07 PM 56.2667 -97.6167 63° Northeast 510 587 39,000  Level Winnipeg Center
Thu 05:50:07 PM 56.3333 -97.3833 69° East 520 598 39,000  Level Winnipeg Center
Thu 05:51:07 PM 56.3833 -97.1500 64° Northeast 520 598 39,000  Level Winnipeg Center
Thu 05:52:07 PM 56.4500 -96.9000 64° Northeast 530 610 39,000  Level Winnipeg Center
Thu 05:53:07 PM 56.5167 -96.6500 80° East 530 610 39,000  Level Winnipeg Center
Thu 05:53:41 PM 56.5333 -96.4833 57° Northeast 520 598 39,000  Level Edmonton Center
Thu 05:54:41 PM 56.6167 -96.2500 70° East 520 598 39,000  Level Edmonton Center
Thu 05:55:07 PM 56.6333 -96.1667 68° East 530 610 39,000  Level Winnipeg Center
Thu 05:55:41 PM 56.6667 -96.0167 65° Northeast 520 598 39,000  Level Edmonton Center
Thu 05:56:41 PM 56.7333 -95.7500 67° East 520 598 39,000  Level Edmonton Center
Thu 05:57:41 PM 56.7833 -95.5333 64° Northeast 520 598 39,000  Level Edmonton Center
Thu 05:58:41 PM 56.8500 -95.2833 62° Northeast 520 598 39,000  Level Edmonton Center
Thu 05:59:41 PM 56.9167 -95.0500 70° East 520 598 39,000  Level Edmonton Center
Thu 06:00:07 PM 56.9333 -94.9667 67° East 520 598 39,000  Level Winnipeg Center
Thu 06:01:07 PM 57.0000 -94.6833 60° Northeast 520 598 39,000  Level Winnipeg Center
Thu 06:02:07 PM 57.0667 -94.4667 90° East 520 598 39,000  Level Winnipeg Center
Thu 06:02:41 PM 57.0667 -94.2833 62° Northeast 510 587 39,000 766 Level Edmonton Center
Thu 06:03:41 PM 57.1333 -94.0500 54° Northeast 520 598 40,200 1,186 Climbing Edmonton Center
Thu 06:04:07 PM 57.1667 -93.9667 70° East 520 598 40,700 800 Climbing Winnipeg Center
Thu 06:04:41 PM 57.2000 -93.8000 68° East 510 587 41,000 191 Climbing Edmonton Center
Thu 06:05:41 PM 57.2500 -93.5667 75° East 520 598 41,000  Level Edmonton Center
Thu 06:06:41 PM 57.2833 -93.3333 42° Northeast 520 598 41,000  Level Edmonton Center
Thu 06:07:07 PM 57.3333 -93.2500 81° East 520 598 41,000  Level Winnipeg Center
Thu 06:07:41 PM 57.3500 -93.0500 62° Northeast 510 587 41,000  Level Edmonton Center
Thu 06:08:41 PM 57.4167 -92.8167 76° East 510 587 41,000  Level Edmonton Center
Thu 06:09:41 PM 57.4500 -92.5667 62° Northeast 510 587 41,000  Level Edmonton Center
Thu 06:10:41 PM 57.5167 -92.3333 78° East 510 587 41,000  Level Edmonton Center
Thu 06:11:41 PM 57.5500 -92.0500 62° Northeast 510 587 41,000  Level Edmonton Center
Thu 06:12:41 PM 57.6167 -91.8167 63° Northeast 510 587 41,000  Level Edmonton Center
Thu 06:13:41 PM 57.6833 -91.5667 76° East 520 598 41,000  Level Edmonton Center
Thu 06:14:41 PM 57.7167 -91.3167 62° Northeast 510 587 41,000  Level Edmonton Center
Thu 06:22:07 PM 58.1725 -89.5277 63° Northeast  Level FlightAware Approximate
Thu 06:30:07 PM 58.6365 -87.5406 65° Northeast  Level FlightAware Approximate
Thu 06:38:07 PM 59.0691 -85.5017 66° East  Level FlightAware Approximate
Thu 06:46:07 PM 59.4690 -83.4129 67° East  Level FlightAware Approximate
Thu 06:54:07 PM 59.8348 -81.2762 68° East  Level FlightAware Approximate
Thu 07:02:07 PM 59.8969 -79.0398 63° Northeast  Level FlightAware Approximate
Thu 07:10:07 PM 60.1148 -76.8024 56° Northeast  Level FlightAware Approximate
Thu 07:18:07 PM 60.2941 -74.5418 28° Northeast  Level FlightAware Approximate
Thu 07:21:09 PM 61.1000 -73.6667 90° East 530 610 41,000  Level Montreal Center
Thu 07:22:09 PM 61.1000 -73.3500 94° East 540 621 41,000  Level Montreal Center
Thu 07:23:52 PM 61.0833 -72.8667 90° East 560 644 41,000  Level Gander Center
Thu 07:24:09 PM 61.0833 -72.7333 84° East 540 621 41,000  Level Montreal Center
Thu 07:25:09 PM 61.1000 -72.4167 96° East 540 621 41,000  Level Montreal Center
Thu 07:26:09 PM 61.0833 -72.1000 90° East 540 621 41,000  Level Montreal Center
Thu 07:27:09 PM 61.0833 -71.8000 96° East 540 621 41,000  Level Montreal Center
Thu 07:28:09 PM 61.0667 -71.4833 96° East 540 621 41,000  Level Montreal Center
Thu 07:29:09 PM 61.0500 -71.1667 90° East 540 621 41,000  Level Montreal Center
Thu 07:30:09 PM 61.0500 -70.8667 96° East 530 610 41,000  Level Montreal Center
Thu 07:31:09 PM 61.0333 -70.5500 97° East 550 633 41,000  Level Montreal Center
Thu 07:32:09 PM 61.0167 -70.2833 90° East 530 610 41,000  Level Montreal Center
Thu 07:33:09 PM 61.0167 -69.9667 96° East 540 621 41,000  Level Montreal Center
Thu 07:34:09 PM 61.0000 -69.6500 102° East 530 610 41,000  Level Montreal Center
Thu 07:35:09 PM 60.9667 -69.3167 104° East 530 610 41,000  Level Montreal Center
Thu 07:36:09 PM 60.9333 -69.0500 102° East 530 610 41,000  Level Montreal Center
Thu 07:37:09 PM 60.9000 -68.7333 103° East 530 610 41,000  Level Montreal Center
Thu 07:38:09 PM 60.8667 -68.4333 104° East 540 621 41,000  Level Montreal Center
Thu 07:39:09 PM 60.8333 -68.1667 96° East 520 598 41,000  Level Montreal Center
Thu 07:40:09 PM 60.8167 -67.8333 103° East 550 633 41,000  Level Montreal Center
Thu 07:41:09 PM 60.7833 -67.5500 103° East 520 598 41,000  Level Montreal Center
Thu 07:42:09 PM 60.7500 -67.2500 103° East 540 621 41,000  Level Montreal Center
Thu 07:43:09 PM 60.7167 -66.9500 90° East 540 621 41,000  Level Montreal Center
Thu 07:44:09 PM 60.7167 -66.6500 96° East 540 621 41,000  Level Montreal Center
Thu 07:45:09 PM 60.7000 -66.3333 90° East 530 610 41,000  Level Montreal Center
Thu 07:46:09 PM 60.7000 -66.0333 90° East 530 610 41,000  Level Montreal Center
Thu 07:47:09 PM 60.7000 -65.7500 96° East 530 610 41,000  Level Montreal Center
Thu 07:48:09 PM 60.6833 -65.4333 84° East 530 610 41,000  Level Montreal Center
Thu 07:49:09 PM 60.7000 -65.1000 103° East 530 610 41,000  Level Montreal Center
Thu 07:49:52 PM 60.6833 -64.9500 101° East 550 633 41,000  Level Gander Center
Thu 07:50:09 PM 60.6667 -64.7833 83° East 550 633 41,000  Level Montreal Center
Thu 07:51:09 PM 60.6833 -64.5167 124° Southeast 530 610 41,000  Level Montreal Center
Thu 07:51:27 PM 60.6667 -64.4667 90° East 530 610 41,000  Level Gander Center
Thu 07:52:09 PM 60.6667 -64.2000 96° East 550 633 41,000  Level Montreal Center
Thu 07:53:09 PM 60.6500 -63.8667 90° East 550 633 41,000  Level Montreal Center
Thu 07:54:09 PM 60.6500 -63.5833 96° East 550 633 41,000  Level Montreal Center
Thu 07:55:09 PM 60.6333 -63.2833 117° Southeast 540 621 41,000  Level Montreal Center
Thu 07:55:27 PM 60.6167 -63.2167 90° East 550 633 41,000  Level Gander Center
Thu 07:55:52 PM 60.6167 -63.0833 74° East 550 633 41,000  Level Gander Center
Thu 07:56:09 PM 60.6333 -62.9667 117° Southeast 540 621 41,000  Level Montreal Center
Thu 07:56:27 PM 60.6167 -62.9000 104° East 550 633 41,000  Level Gander Center
Thu 07:56:52 PM 60.6000 -62.7667 83° East 550 633 41,000  Level Gander Center
Thu 07:57:52 PM 60.6167 -62.4667 112° Southeast 540 621 41,000  Level Gander Center
Thu 07:58:09 PM 60.6000 -62.3833 39° Northeast 540 621 41,000  Level Montreal Center
Thu 07:58:27 PM 60.6500 -62.3000 76° East 540 621 41,000  Level Gander Center
Thu 07:59:27 PM 60.6833 -62.0333 63° Northeast 540 621 41,000  Level Gander Center
Thu 07:59:52 PM 60.7167 -61.9000 76° East 540 621 41,000  Level Gander Center
Thu 08:00:52 PM 60.7500 -61.6167 71° East 540 621 41,000  Level Gander Center
Thu 08:01:52 PM 60.8000 -61.3167 69° East 540 621 41,000  Level Gander Center
Thu 08:02:52 PM 60.8500 -61.0500 70° East 540 621 41,000  Level Gander Center
Thu 08:03:52 PM 60.9000 -60.7667 78° East 540 621 41,000  Level Gander Center
Thu 08:04:27 PM 60.9167 -60.6000 72° East 540 621 41,000  Level Gander Center
Thu 08:05:27 PM 60.9667 -60.2833 69° East 540 621 41,000  Level Gander Center
Thu 08:06:27 PM 61.0167 -60.0167 90° East 530 610 41,000 -71 Level Gander Center
Thu 08:06:52 PM 61.0167 -59.8833 84° East 530 610 40,900 -424 Descending Gander Center
Thu 08:07:52 PM 61.0333 -59.5667 90° East 540 621 40,400 -450 Descending Gander Center
Thu 08:08:52 PM 61.0333 -59.2667 84° East 550 633 40,000 -200 Descending Gander Center
Thu 08:09:52 PM 61.0500 -58.9500 90° East 550 633 40,000  Level Gander Center
Thu 08:10:27 PM 61.0500 -58.8167 90° East 550 633 40,000  Level Gander Center
Thu 08:11:27 PM 61.0500 -58.5000 80° East 540 621 40,000  Level Gander Center
Thu 08:11:52 PM 61.0667 -58.3000 90° East 540 621 40,000  Level Gander Center
Thu 08:12:27 PM 61.0667 -58.2000 77° East 540 621 40,000  Level Gander Center
Thu 08:12:52 PM 61.0833 -58.0500 101° East 550 633 40,000  Level Gander Center
Thu 08:13:09 PM 61.0667 -57.8667 83° East 530 610 40,000  Level Montreal Center
Thu 08:14:27 PM 61.0833 -57.5667 90° East 550 633 40,000  Level Gander Center
Thu 08:14:52 PM 61.0833 -57.4333 90° East 550 633 40,000  Level Gander Center
Thu 08:15:52 PM 61.0833 -57.1167 83° East 540 621 40,000  Level Gander Center
Thu 08:16:52 PM 61.1000 -56.8167 90° East 550 633 40,000  Level Gander Center
Thu 08:17:52 PM 61.1000 -56.5000 90° East 550 633 40,000  Level Gander Center
Thu 08:18:52 PM 61.1000 -56.2000 81° East 550 633 40,000  Level Gander Center
Thu 08:26:07 PM 61.0697 -54.0635 83° East  Level FlightAware Approximate
Thu 08:34:07 PM 60.9972 -51.7135 84° East  Level FlightAware Approximate
Thu 08:42:07 PM 60.9603 -49.3670 86° East  Level FlightAware Approximate
Thu 08:50:07 PM 60.8565 -47.0312 88° East  Level FlightAware Approximate
Thu 08:58:07 PM 60.7125 -44.7134 89° East  Level FlightAware Approximate
Thu 09:06:07 PM 60.5289 -42.4192 91° East  Level FlightAware Approximate
Thu 09:14:07 PM 60.3065 -40.1535 92° East  Level FlightAware Approximate
Thu 09:22:07 PM 60.1899 -37.8674 94° East  Level FlightAware Approximate
Thu 09:30:07 PM 60.0344 -35.6003 96° East  Level FlightAware Approximate
Thu 09:38:07 PM 59.4597 -33.6886 96° East  Level FlightAware Approximate
Thu 09:46:07 PM 59.1974 -31.5130 98° East  Level FlightAware Approximate
Thu 09:54:07 PM 58.9587 -29.3477 99° East  Level FlightAware Approximate
Thu 10:02:07 PM 58.7745 -27.1710 101° East  Level FlightAware Approximate
Thu 10:10:07 PM 58.5541 -25.0195 103° East  Level FlightAware Approximate
Thu 10:18:07 PM 58.2981 -22.8970 105° East  Level FlightAware Approximate
Thu 10:26:07 PM 58.1101 -20.8197 108° East  Level FlightAware Approximate
Thu 10:34:07 PM 57.7867 -18.7597 110° East  Level FlightAware Approximate
Thu 10:42:07 PM 57.4106 -16.7505 111° Southeast  Level FlightAware Approximate
Thu 10:50:07 PM 57.0033 -14.7838 113° Southeast  Level FlightAware Approximate
Thu 10:58:07 PM 56.5658 -12.8613 115° Southeast  Level FlightAware Approximate
Thu 11:06:07 PM 56.0993 -10.9841 117° Southeast  Level FlightAware Approximate
Thu 11:14:07 PM 55.6016 -9.1563 119° Southeast  Level FlightAware Approximate
Thu 11:22:07 PM 55.0831 -7.3702 122° Southeast  Level FlightAware Approximate
Thu 11:30:07 PM 54.5392 -5.6309 128° Southeast  Level FlightAware Approximate
Thu 11:38:01 PM 53.7220 -3.8852 127° Southeast 492 566 40,000  Level FlightAware ADS-B
Thu 11:38:17 PM 53.6998 -3.8348 127° Southeast 493 567 40,000  Level FlightAware ADS-B
Thu 11:38:33 PM 53.6793 -3.7881 127° Southeast 493 567 40,000  Level FlightAware ADS-B
Thu 11:38:50 PM 53.6565 -3.7365 127° Southeast 493 567 40,000  Level FlightAware ADS-B
Thu 11:39:07 PM 53.6328 -3.6827 127° Southeast 492 566 40,000  Level FlightAware ADS-B
Thu 11:39:23 PM 53.6116 -3.6349 127° Southeast 494 568 40,000  Level FlightAware ADS-B
Thu 11:39:39 PM 53.5898 -3.5858 127° Southeast 494 568 40,000  Level FlightAware ADS-B
Thu 11:39:54 PM 53.5686 -3.5382 127° Southeast 494 568 40,000  Level FlightAware ADS-B
Thu 11:40:10 PM 53.5469 -3.4894 127° Southeast 495 570 40,000  Level FlightAware ADS-B
Thu 11:40:25 PM 53.5259 -3.4425 127° Southeast 495 570 40,000  Level FlightAware ADS-B
Thu 11:40:41 PM 53.5051 -3.3960 127° Southeast 495 570 40,000  Level FlightAware ADS-B
Thu 11:40:56 PM 53.4845 -3.3500 127° Southeast 496 571 40,000  Level FlightAware ADS-B
Thu 11:41:11 PM 53.4631 -3.3023 127° Southeast 496 571 40,000  Level FlightAware ADS-B
Thu 11:41:28 PM 53.4400 -3.2509 127° Southeast 495 570 40,000  Level FlightAware ADS-B
Thu 11:41:43 PM 53.4186 -3.2036 127° Southeast 496 571 40,000  Level FlightAware ADS-B
Thu 11:41:59 PM 53.3967 -3.1550 127° Southeast 496 571 40,000  Level FlightAware ADS-B
Thu 11:42:16 PM 53.3739 -3.1047 127° Southeast 496 571 40,000  Level FlightAware ADS-B
Thu 11:42:32 PM 53.3522 -3.0568 127° Southeast 496 571 40,000  Level FlightAware ADS-B
Thu 11:42:47 PM 53.3307 -3.0093 127° Southeast 496 571 40,000  Level FlightAware ADS-B
Thu 11:43:03 PM 53.3089 -2.9615 127° Southeast 496 571 40,000  Level FlightAware ADS-B
Thu 11:43:18 PM 53.2877 -2.9151 127° Southeast 495 570 40,000  Level FlightAware ADS-B
Thu 11:43:34 PM 53.2657 -2.8668 128° Southeast 496 571 40,000  Level FlightAware ADS-B
Thu 11:43:49 PM 53.2444 -2.8204 127° Southeast 496 571 40,000  Level FlightAware ADS-B
Thu 11:44:06 PM 53.2215 -2.7705 127° Southeast 495 570 40,000  Level FlightAware ADS-B
Thu 11:44:22 PM 53.1993 -2.7222 127° Southeast 494 568 40,000  Level FlightAware ADS-B
Thu 11:44:37 PM 53.1785 -2.6770 127° Southeast 494 568 40,000  Level FlightAware ADS-B
Thu 11:44:53 PM 53.1565 -2.6291 128° Southeast 493 567 40,000  Level FlightAware ADS-B
Thu 11:45:13 PM 53.1279 -2.5673 128° Southeast 493 567 40,000  Level FlightAware ADS-B
Thu 11:45:28 PM 53.1071 -2.5224 128° Southeast 493 567 40,000  Level FlightAware ADS-B
Thu 11:45:49 PM 53.0785 -2.4608 128° Southeast 493 567 40,000  Level FlightAware ADS-B
Thu 11:46:04 PM 53.0575 -2.4154 128° Southeast 493 567 40,000  Level FlightAware ADS-B
Thu 11:46:20 PM 53.0353 -2.3679 128° Southeast 493 567 40,000  Level FlightAware ADS-B
Thu 11:46:35 PM 53.0139 -2.3220 128° Southeast 492 566 40,000  Level FlightAware ADS-B
Thu 11:46:50 PM 52.9928 -2.2771 128° Southeast 492 566 40,000  Level FlightAware ADS-B
Thu 11:47:06 PM 52.9715 -2.2316 128° Southeast 492 566 40,000  Level FlightAware ADS-B
Thu 11:47:22 PM 52.9495 -2.1846 128° Southeast 492 566 40,000  Level FlightAware ADS-B
Thu 11:47:37 PM 52.9281 -2.1392 128° Southeast 493 567 40,000  Level FlightAware ADS-B
Thu 11:47:53 PM 52.9061 -2.0923 128° Southeast 493 567 40,000  Level FlightAware ADS-B
Thu 11:48:08 PM 52.8850 -2.0476 128° Southeast 492 566 40,000  Level FlightAware ADS-B
Thu 11:48:24 PM 52.8630 -2.0011 128° Southeast 492 566 40,000  Level FlightAware ADS-B
Thu 11:48:39 PM 52.8410 -1.9547 128° Southeast 493 567 40,000  Level FlightAware ADS-B
Thu 11:48:55 PM 52.8194 -1.9093 128° Southeast 492 566 40,000  Level FlightAware ADS-B
Thu 11:49:10 PM 52.7980 -1.8642 128° Southeast 492 566 40,000  Level FlightAware ADS-B
Thu 11:49:25 PM 52.7767 -1.8194 128° Southeast 492 566 40,000  Level FlightAware ADS-B
Thu 11:49:40 PM 52.7552 -1.7747 128° Southeast 492 566 40,000  Level FlightAware ADS-B
Thu 11:49:55 PM 52.7341 -1.7303 128° Southeast 493 567 40,000  Level FlightAware ADS-B
Thu 11:50:11 PM 52.7129 -1.6859 128° Southeast 493 567 40,000  Level FlightAware ADS-B
Thu 11:50:26 PM 52.6912 -1.6407 128° Southeast 493 567 40,000  Level FlightAware ADS-B
Thu 11:50:41 PM 52.6701 -1.5968 128° Southeast 493 567 40,000  Level FlightAware ADS-B
Thu 11:50:56 PM 52.6481 -1.5510 128° Southeast 493 567 40,000  Level FlightAware ADS-B
Thu 11:51:12 PM 52.6266 -1.5065 129° Southeast 493 567 40,000  Level FlightAware ADS-B
Thu 11:51:27 PM 52.6050 -1.4618 129° Southeast 493 567 40,000  Level FlightAware ADS-B
Thu 11:51:42 PM 52.5835 -1.4174 129° Southeast 492 566 40,000  Level FlightAware ADS-B
Thu 11:51:57 PM 52.5620 -1.3731 129° Southeast 492 566 40,000  Level FlightAware ADS-B
Thu 11:52:13 PM 52.5405 -1.3288 129° Southeast 492 566 40,000  Level FlightAware ADS-B
Thu 11:52:28 PM 52.5190 -1.2845 129° Southeast 492 566 40,000  Level FlightAware ADS-B
Thu 11:52:43 PM 52.4976 -1.2406 129° Southeast 492 566 40,000  Level FlightAware ADS-B
Thu 11:52:58 PM 52.4762 -1.1968 129° Southeast 492 566 40,000  Level FlightAware ADS-B
Thu 11:53:14 PM 52.4542 -1.1518 129° Southeast 492 566 40,000  Level FlightAware ADS-B
Thu 11:53:29 PM 52.4328 -1.1080 129° Southeast 492 566 40,000  Level FlightAware ADS-B
Thu 11:53:47 PM 52.4071 -1.0555 129° Southeast 491 565 40,000  Level FlightAware ADS-B
Thu 11:54:17 PM 52.3640 -0.9681 129° Southeast 491 565 40,000  Level FlightAware ADS-B
Thu 11:54:32 PM 52.3427 -0.9250 129° Southeast 491 565 40,000  Level FlightAware ADS-B
Thu 11:54:48 PM 52.3204 -0.8798 129° Southeast 490 564 40,000  Level FlightAware ADS-B
Thu 11:55:03 PM 52.2990 -0.8365 129° Southeast 490 564 40,000  Level FlightAware ADS-B
Thu 11:55:18 PM 52.2775 -0.7933 129° Southeast 489 563 40,000  Level FlightAware ADS-B
Thu 11:55:33 PM 52.2560 -0.7499 129° Southeast 489 563 40,000  Level FlightAware ADS-B
Thu 11:55:48 PM 52.2345 -0.7069 129° Southeast 488 562 40,000  Level FlightAware ADS-B
Thu 11:56:05 PM 52.2106 -0.6587 129° Southeast 488 562 40,000  Level FlightAware ADS-B
Thu 11:56:23 PM 52.1852 -0.6079 129° Southeast 488 562 40,000  Level FlightAware ADS-B
Thu 11:56:38 PM 52.1636 -0.5648 129° Southeast 488 562 40,000  Level FlightAware ADS-B
Thu 11:56:53 PM 52.1419 -0.5215 129° Southeast 489 563 40,000  Level FlightAware ADS-B
Thu 11:57:09 PM 52.1203 -0.4785 129° Southeast 489 563 40,000  Level FlightAware ADS-B
Thu 11:57:24 PM 52.0986 -0.4353 129° Southeast 489 563 40,000  Level FlightAware ADS-B
Thu 11:57:39 PM 52.0769 -0.3922 129° Southeast 490 564 40,000  Level FlightAware ADS-B
Thu 11:57:54 PM 52.0553 -0.3494 129° Southeast 490 564 40,000  Level FlightAware ADS-B
Thu 11:58:09 PM 52.0335 -0.3063 129° Southeast 490 564 40,000  Level FlightAware ADS-B
Thu 11:58:25 PM 52.0114 -0.2627 129° Southeast 490 564 40,000  Level FlightAware ADS-B
Thu 11:58:41 PM 51.9887 -0.2180 130° Southeast 490 564 40,000  Level FlightAware ADS-B
Thu 11:58:56 PM 51.9668 -0.1750 129° Southeast 490 564 40,000  Level FlightAware ADS-B
Thu 11:59:11 PM 51.9444 -0.1309 130° Southeast 490 564 40,000  Level FlightAware ADS-B
Thu 11:59:27 PM 51.9224 -0.0877 130° Southeast 490 564 40,000  Level FlightAware ADS-B
Thu 11:59:42 PM 51.9003 -0.0446 130° Southeast 491 565 40,000  Level FlightAware ADS-B
Thu 11:59:57 PM 51.8785 -0.0019 130° Southeast 491 565 40,000  Level FlightAware ADS-B
Fri 12:00:12 AM 51.8567 0.0406 130° Southeast 491 565 40,000  Level FlightAware ADS-B
Fri 12:00:28 AM 51.8343 0.0842 130° Southeast 491 565 40,000  Level FlightAware ADS-B
Fri 12:00:43 AM 51.8123 0.1270 130° Southeast 491 565 40,000  Level FlightAware ADS-B
Fri 12:00:58 AM 51.7905 0.1695 130° Southeast 491 565 40,000  Level FlightAware ADS-B
Fri 12:01:13 AM 51.7684 0.2122 130° Southeast 492 566 40,000  Level FlightAware ADS-B
Fri 12:01:29 AM 51.7456 0.2563 130° Southeast 492 566 40,000  Level FlightAware ADS-B
Fri 12:01:44 AM 51.7231 0.2998 130° Southeast 492 566 40,000  Level FlightAware ADS-B
Fri 12:02:00 AM 51.7005 0.3432 130° Southeast 491 565 40,000  Level FlightAware ADS-B
Fri 12:02:15 AM 51.6784 0.3859 130° Southeast 492 566 40,000  Level FlightAware ADS-B
Fri 12:02:31 AM 51.6559 0.4290 130° Southeast 492 566 40,000  Level FlightAware ADS-B
Fri 12:02:46 AM 51.6329 0.4732 130° Southeast 492 566 40,000  Level FlightAware ADS-B
Fri 12:03:02 AM 51.6103 0.5165 130° Southeast 492 566 40,000  Level FlightAware ADS-B
Fri 12:03:17 AM 51.5875 0.5600 130° Southeast 493 567 40,000  Level FlightAware ADS-B
Fri 12:03:33 AM 51.5650 0.6030 130° Southeast 493 567 40,000  Level FlightAware ADS-B
Fri 12:03:48 AM 51.5422 0.6465 130° Southeast 493 567 40,000  Level FlightAware ADS-B
Fri 12:04:06 AM 51.5167 0.6950 130° Southeast 493 567 40,000  Level FlightAware ADS-B
Fri 12:04:22 AM 51.4933 0.7393 130° Southeast 492 566 40,000  Level FlightAware ADS-B
Fri 12:04:37 AM 51.4706 0.7824 130° Southeast 492 566 40,000  Level FlightAware ADS-B
Fri 12:04:53 AM 51.4471 0.8268 130° Southeast 492 566 40,000  Level FlightAware ADS-B
Fri 12:05:09 AM 51.4244 0.8696 130° Southeast 493 567 40,000  Level FlightAware ADS-B
Fri 12:05:24 AM 51.4021 0.9118 130° Southeast 493 567 40,000  Level FlightAware ADS-B
Fri 12:05:40 AM 51.3785 0.9561 130° Southeast 494 568 40,000  Level FlightAware ADS-B
Fri 12:05:55 AM 51.3558 0.9988 131° Southeast 494 568 40,000  Level FlightAware ADS-B
Fri 12:06:10 AM 51.3332 1.0411 130° Southeast 493 567 40,000  Level FlightAware ADS-B
Fri 12:06:26 AM 51.3108 1.0831 130° Southeast 493 567 40,000  Level FlightAware ADS-B
Fri 12:06:41 AM 51.2884 1.1250 129° Southeast 493 567 40,000  Level FlightAware ADS-B
Fri 12:06:56 AM 51.2665 1.1675 121° Southeast 490 564 40,000  Level FlightAware ADS-B
Fri 12:07:12 AM 51.2483 1.2154 112° Southeast 483 556 40,000  Level FlightAware ADS-B
Fri 12:07:28 AM 51.2350 1.2672 104° East 478 550 40,000  Level FlightAware ADS-B
Fri 12:07:43 AM 51.2270 1.3194 99° East 473 544 40,000  Level FlightAware ADS-B
Fri 12:07:59 AM 51.2218 1.3729 99° East 472 543 40,000  Level FlightAware ADS-B
Fri 12:08:14 AM 51.2167 1.4253 99° East 472 543 40,000  Level FlightAware ADS-B
Fri 12:08:29 AM 51.2116 1.4788 100° East 472 543 40,000  Level FlightAware ADS-B
Fri 12:08:45 AM 51.2056 1.5331 108° East 475 547 40,000  Level FlightAware ADS-B
Fri 12:09:24 AM 51.1795 1.6618 113° Southeast 482 555 40,000  Level FlightAware ADS-B
Fri 12:10:01 AM 51.1472 1.7825 113° Southeast 482 555 40,000  Level FlightAware ADS-B
Fri 12:10:21 AM 51.1298 1.8467 113° Southeast 482 555 40,000  Level FlightAware ADS-B
Fri 12:12:20 AM 51.0244 2.2331 114° Southeast 481 554 40,000  Level FlightAware ADS-B
Fri 12:12:40 AM 51.0067 2.2975 114° Southeast 480 552 40,000  Level FlightAware ADS-B
Fri 12:12:56 AM 50.9926 2.3487 114° Southeast 480 552 40,000  Level FlightAware ADS-B
Fri 12:13:14 AM 50.9767 2.4061 114° Southeast 480 552 40,000  Level FlightAware ADS-B
Fri 12:13:36 AM 50.9572 2.4764 114° Southeast 480 552 40,000  Level FlightAware ADS-B
Fri 12:13:52 AM 50.9431 2.5272 114° Southeast 480 552 40,000  Level FlightAware ADS-B
Fri 12:14:09 AM 50.9277 2.5826 114° Southeast 479 551 40,000  Level FlightAware ADS-B
Fri 12:14:26 AM 50.9123 2.6376 114° Southeast 478 550 40,000  Level FlightAware ADS-B
Fri 12:14:44 AM 50.8964 2.6946 114° Southeast 477 549 40,000  Level FlightAware ADS-B
Fri 12:15:01 AM 50.8815 2.7473 114° Southeast 476 548 40,000  Level FlightAware ADS-B
Fri 12:15:16 AM 50.8679 2.7959 114° Southeast 476 548 40,000  Level FlightAware ADS-B
Fri 12:16:19 AM 50.8114 2.9959 114° Southeast 474 545 40,000  Level FlightAware ADS-B
Fri 12:16:40 AM 50.7924 3.0625 110° East 473 544 40,000  Level FlightAware ADS-B
Fri 12:24:07 AM 50.4365 4.5454 127° Southeast  Level FlightAware Approximate
Fri 12:32:07 AM 49.7405 5.9524 128° Southeast  Level FlightAware Approximate
Fri 12:40:07 AM 49.6167 6.2000 37° Northeast  Level FlightAware Approximate
Fri 12:48:07 AM 50.5228 7.2787 218° Southwest  Level Estimated
Fri 12:56:07 AM 49.6167 6.2000 218° Southwest  Level FlightAware Approximate

Login

Don't have an account? Register now (free) for customized features, flight alerts, and more!